createdAt,value
2022-08-27T00:00:35.585Z,10.38
2022-08-27T00:03:23.269Z,9.58
2022-08-27T00:06:12.431Z,10.32
2022-08-27T00:09:00.740Z,10.53
2022-08-27T00:11:48.313Z,9.30
2022-08-27T00:14:36.823Z,9.88
2022-08-27T00:17:24.581Z,9.33
2022-08-27T00:20:13.615Z,9.15
2022-08-27T00:23:01.272Z,8.65
2022-08-27T00:25:48.613Z,9.78
2022-08-27T00:28:36.899Z,9.45
2022-08-27T00:31:27.547Z,9.70
2022-08-27T00:34:13.299Z,9.00
2022-08-27T00:37:00.659Z,8.98
2022-08-27T00:39:48.285Z,8.68
2022-08-27T00:42:35.951Z,9.00
2022-08-27T00:45:25.501Z,8.98
2022-08-27T00:48:15.963Z,8.95
2022-08-27T00:51:05.355Z,9.28
2022-08-27T00:53:54.469Z,9.23
2022-08-27T00:56:50.649Z,9.38
2022-08-27T00:59:35.493Z,9.13
2022-08-27T01:02:24.826Z,8.88
2022-08-27T01:05:15.267Z,9.40
2022-08-27T01:08:05.901Z,8.70
2022-08-27T01:10:54.959Z,8.70
2022-08-27T01:13:53.465Z,9.53
2022-08-27T01:16:37.253Z,8.00
2022-08-27T01:19:31.094Z,8.28
2022-08-27T01:22:27.520Z,8.60
2022-08-27T01:25:18.223Z,8.35
2022-08-27T01:28:06.567Z,8.55
2022-08-27T01:30:53.880Z,9.30
2022-08-27T01:33:41.554Z,8.80
2022-08-27T01:36:29.814Z,8.60
2022-08-27T01:39:17.297Z,8.55
2022-08-27T01:42:11.423Z,8.68
2022-08-27T01:45:02.050Z,8.08
2022-08-27T01:47:51.147Z,8.38
2022-08-27T01:50:40.666Z,9.25
2022-08-27T01:53:28.834Z,9.98
2022-08-27T01:56:16.357Z,9.83
2022-08-27T01:59:04.040Z,9.98
2022-08-27T02:01:52.064Z,10.82
2022-08-27T02:04:40.318Z,9.78
2022-08-27T02:07:28.137Z,9.38
2022-08-27T02:10:19.454Z,10.55
2022-08-27T02:13:08.513Z,11.08
2022-08-27T02:15:56.363Z,9.68
2022-08-27T02:18:43.660Z,11.40
2022-08-27T02:21:31.131Z,9.90
2022-08-27T02:24:18.426Z,10.60
2022-08-27T02:27:06.243Z,10.78
2022-08-27T02:29:55.383Z,10.80
2022-08-27T02:32:43.343Z,10.32
2022-08-27T02:35:32.756Z,10.55
2022-08-27T02:38:20.769Z,11.35
2022-08-27T02:41:08.052Z,11.10
2022-08-27T02:43:55.779Z,10.80
2022-08-27T02:46:43.798Z,11.10
2022-08-27T02:49:31.591Z,10.90
2022-08-27T02:52:24.789Z,11.28
2022-08-27T02:55:09.587Z,11.05
2022-08-27T02:57:57.761Z,12.13
2022-08-27T03:00:45.831Z,11.08
2022-08-27T03:03:33.945Z,11.65
2022-08-27T03:06:21.559Z,11.73
2022-08-27T03:09:10.616Z,11.35
2022-08-27T03:11:58.350Z,11.55
2022-08-27T03:14:45.894Z,10.58
2022-08-27T03:17:51.016Z,11.43
2022-08-27T03:20:44.468Z,11.15
2022-08-27T03:23:35.777Z,10.58
2022-08-27T03:26:23.653Z,10.40
2022-08-27T03:29:10.872Z,10.25
2022-08-27T03:31:58.189Z,11.10
2022-08-27T03:34:45.834Z,10.90
2022-08-27T03:37:33.489Z,10.55
2022-08-27T03:40:20.953Z,12.85
2022-08-27T03:43:09.909Z,13.10
2022-08-27T03:46:01.523Z,10.98
2022-08-27T03:48:46.456Z,10.75
2022-08-27T03:51:33.992Z,10.55
2022-08-27T03:54:21.749Z,10.13
2022-08-27T03:57:10.540Z,10.00
2022-08-27T03:59:58.187Z,9.50
2022-08-27T04:02:46.161Z,10.60
2022-08-27T04:05:34.841Z,10.38
2022-08-27T04:08:23.120Z,11.00
2022-08-27T04:11:10.788Z,10.20
2022-08-27T04:13:58.032Z,9.78
2022-08-27T04:16:45.655Z,9.98
2022-08-27T04:19:34.064Z,10.75
2022-08-27T04:22:21.793Z,10.25
2022-08-27T04:25:10.429Z,10.23
2022-08-27T04:27:59.689Z,9.50
2022-08-27T04:30:47.947Z,10.55
2022-08-27T04:33:35.535Z,10.13
2022-08-27T04:36:22.581Z,10.18
2022-08-27T04:39:10.071Z,8.88
2022-08-27T04:41:59.468Z,9.08
2022-08-27T04:44:48.427Z,10.15
2022-08-27T04:47:36.041Z,9.10
2022-08-27T04:50:24.320Z,9.78
2022-08-27T04:53:12.956Z,9.48
2022-08-27T04:55:59.983Z,10.40
2022-08-27T04:58:47.177Z,9.08
2022-08-27T05:01:34.666Z,9.53
2022-08-27T05:04:21.997Z,9.15
2022-08-27T05:07:11.652Z,9.40
2022-08-27T05:09:59.293Z,9.00
2022-08-27T05:12:46.761Z,8.98
2022-08-27T05:15:33.807Z,8.60
2022-08-27T05:18:21.211Z,9.00
2022-08-27T05:21:09.269Z,9.20
2022-08-27T05:24:00.695Z,9.78
2022-08-27T05:26:48.534Z,9.45
2022-08-27T05:29:35.869Z,8.95
2022-08-27T05:32:23.936Z,8.73
2022-08-27T05:35:15.218Z,8.93
2022-08-27T05:38:03.553Z,9.03
2022-08-27T05:40:50.843Z,8.78
2022-08-27T05:43:40.221Z,8.98
2022-08-27T05:46:29.231Z,8.58
2022-08-27T05:49:16.335Z,9.20
2022-08-27T05:52:04.015Z,9.78
2022-08-27T05:54:51.522Z,9.53
2022-08-27T05:57:39.359Z,9.58
2022-08-27T06:00:44.592Z,9.75
2022-08-27T06:03:35.422Z,9.50
2022-08-27T06:06:23.576Z,10.05
2022-08-27T06:09:13.199Z,8.78
2022-08-27T06:12:02.460Z,9.28
2022-08-27T06:14:49.429Z,9.43
2022-08-27T06:17:36.696Z,9.40
2022-08-27T06:20:24.531Z,8.98
2022-08-27T06:23:12.346Z,9.45
2022-08-27T06:26:00.237Z,8.48
2022-08-27T06:28:47.879Z,9.10
2022-08-27T06:31:35.685Z,10.08
2022-08-27T06:34:23.362Z,9.03
2022-08-27T06:37:10.921Z,9.08
2022-08-27T06:39:58.338Z,9.80
2022-08-27T06:42:45.889Z,9.95
2022-08-27T06:45:33.411Z,8.88
2022-08-27T06:48:21.388Z,8.68
2022-08-27T06:51:12.309Z,8.65
2022-08-27T06:54:02.272Z,8.68
2022-08-27T06:56:52.568Z,8.70
2022-08-27T06:59:41.232Z,7.97
2022-08-27T07:02:28.584Z,7.47
2022-08-27T07:05:15.921Z,7.35
2022-08-27T07:08:04.092Z,7.35
2022-08-27T07:10:53.157Z,6.97
2022-08-27T07:13:41.338Z,7.08
2022-08-27T07:16:30.689Z,7.10
2022-08-27T07:19:17.880Z,7.05
2022-08-27T07:22:06.264Z,7.37
2022-08-27T07:24:53.894Z,7.85
2022-08-27T07:27:42.042Z,8.00
2022-08-27T07:30:29.641Z,7.85
2022-08-27T07:33:17.197Z,7.67
2022-08-27T07:36:06.281Z,8.50
2022-08-27T07:38:59.196Z,6.83
2022-08-27T07:42:00.999Z,6.20
2022-08-27T07:44:49.825Z,6.65
2022-08-27T07:47:37.320Z,5.58
2022-08-27T07:50:24.865Z,5.83
2022-08-27T07:53:12.196Z,5.92
2022-08-27T07:56:08.463Z,6.12
2022-08-27T07:58:56.141Z,5.87
2022-08-27T08:01:43.588Z,6.00
2022-08-27T08:04:33.625Z,5.85
2022-08-27T08:07:21.753Z,5.78
2022-08-27T08:10:11.637Z,5.17
2022-08-27T08:12:59.163Z,4.95
2022-08-27T08:15:47.662Z,4.97
2022-08-27T08:18:36.207Z,4.92
2022-08-27T08:21:24.057Z,4.72
2022-08-27T08:24:11.559Z,5.22
2022-08-27T08:27:00.411Z,4.92
2022-08-27T08:29:49.320Z,5.47
2022-08-27T08:32:36.963Z,5.20
2022-08-27T08:35:24.333Z,5.35
2022-08-27T08:38:11.895Z,4.75
2022-08-27T08:40:59.899Z,5.55
2022-08-27T08:43:49.132Z,5.58
2022-08-27T08:46:39.719Z,5.60
2022-08-27T08:49:57.060Z,5.70
2022-08-27T08:52:56.677Z,5.47
2022-08-27T08:55:56.087Z,5.25
2022-08-27T08:58:55.404Z,4.70
2022-08-27T09:01:44.540Z,4.87
2022-08-27T09:04:31.991Z,5.55
2022-08-27T09:07:22.953Z,4.75
2022-08-27T09:10:25.451Z,4.87
2022-08-27T09:13:27.893Z,4.92
2022-08-27T09:16:15.523Z,4.72
2022-08-27T09:19:06.117Z,4.50
2022-08-27T09:22:05.984Z,4.97
2022-08-27T09:25:20.916Z,5.35
2022-08-27T09:28:14.443Z,5.67
2022-08-27T09:31:04.970Z,4.78
2022-08-27T09:33:55.889Z,5.67
2022-08-27T09:37:11.744Z,4.83
2022-08-27T09:40:07.218Z,5.40
2022-08-27T09:42:59.809Z,5.10
2022-08-27T09:46:00.172Z,4.75
2022-08-27T09:48:47.534Z,4.60
2022-08-27T09:51:39.603Z,4.78
2022-08-27T09:54:33.092Z,4.65
2022-08-27T09:57:24.414Z,5.10
2022-08-27T10:00:19.085Z,4.75
2022-08-27T10:03:08.287Z,5.15
2022-08-27T10:05:55.317Z,4.90
2022-08-27T10:08:51.749Z,4.75
2022-08-27T10:11:42.421Z,4.65
2022-08-27T10:14:44.015Z,5.08
2022-08-27T10:17:37.085Z,4.50
2022-08-27T10:20:30.843Z,4.55
2022-08-27T10:23:33.993Z,4.78
2022-08-27T10:26:33.863Z,4.87
2022-08-27T10:29:34.949Z,4.62
2022-08-27T10:32:52.874Z,4.37
2022-08-27T10:35:54.585Z,4.75
2022-08-27T10:38:47.273Z,5.45
2022-08-27T10:41:40.586Z,4.35
2022-08-27T10:44:46.215Z,4.30
2022-08-27T10:47:59.259Z,4.75
2022-08-27T10:51:02.558Z,4.62
2022-08-27T10:54:05.764Z,4.70
2022-08-27T10:57:21.726Z,5.58
2022-08-27T10:59:54.176Z,5.33
2022-08-27T11:02:45.085Z,4.90
2022-08-27T11:05:36.901Z,5.33
2022-08-27T11:08:33.687Z,4.92
2022-08-27T11:14:25.793Z,4.90
2022-08-27T11:17:32.843Z,4.92
2022-08-27T11:20:25.912Z,5.45
2022-08-27T11:23:19.268Z,4.87
2022-08-27T11:26:07.492Z,5.03
2022-08-27T11:29:03.729Z,4.70
2022-08-27T11:31:54.061Z,5.17
2022-08-27T11:34:50.340Z,5.80
2022-08-27T11:37:45.178Z,5.03
2022-08-27T11:40:41.395Z,5.05
2022-08-27T11:43:31.224Z,5.05
2022-08-27T11:46:26.580Z,5.15
2022-08-27T11:49:26.399Z,4.80
2022-08-27T11:52:16.022Z,4.80
2022-08-27T11:55:15.670Z,4.78
2022-08-27T11:58:24.368Z,4.90
2022-08-27T12:01:27.193Z,5.33
2022-08-27T12:04:35.827Z,4.78
2022-08-27T12:07:29.552Z,4.67
2022-08-27T12:10:26.076Z,4.53
2022-08-27T12:13:25.172Z,4.70
2022-08-27T12:16:18.582Z,5.50
2022-08-27T12:19:08.867Z,4.65
2022-08-27T12:22:39.507Z,4.60
2022-08-27T12:25:26.066Z,4.50
2022-08-27T12:28:16.656Z,4.92
2022-08-27T12:31:05.847Z,5.17
2022-08-27T12:33:54.913Z,4.92
2022-08-27T12:36:42.449Z,4.12
2022-08-27T12:39:32.830Z,4.78
2022-08-27T12:42:22.755Z,4.30
2022-08-27T12:45:11.708Z,4.33
2022-08-27T12:48:00.527Z,4.22
2022-08-27T12:50:53.657Z,4.22
2022-08-27T12:53:44.447Z,4.03
2022-08-27T12:56:46.760Z,4.47
2022-08-27T13:00:07.699Z,4.12
2022-08-27T13:03:07.513Z,4.53
2022-08-27T13:05:56.177Z,4.00
2022-08-27T13:08:44.264Z,3.92
2022-08-27T13:11:34.759Z,4.55
2022-08-27T13:14:23.029Z,4.37
2022-08-27T13:17:13.628Z,4.30
2022-08-27T13:20:02.232Z,4.53
2022-08-27T13:22:51.115Z,4.25
2022-08-27T13:25:38.541Z,4.60
2022-08-27T13:28:29.554Z,4.47
2022-08-27T13:31:19.351Z,4.40
2022-08-27T13:34:07.774Z,4.47
2022-08-27T13:37:02.396Z,4.60
2022-08-27T13:39:52.919Z,4.40
2022-08-27T13:42:45.074Z,4.47
2022-08-27T13:45:32.524Z,4.78
2022-08-27T13:48:24.367Z,4.40
2022-08-27T13:51:11.872Z,4.80
2022-08-27T13:54:15.676Z,4.65
2022-08-27T13:57:07.853Z,4.50
2022-08-27T13:59:55.262Z,4.37
2022-08-27T14:02:55.388Z,4.47
2022-08-27T14:05:35.591Z,4.25
2022-08-27T14:08:24.496Z,4.37
2022-08-27T14:11:12.224Z,4.85
2022-08-27T14:13:59.996Z,4.65
2022-08-27T14:16:50.424Z,5.03
2022-08-27T14:19:39.386Z,4.10
2022-08-27T14:22:26.977Z,4.60
2022-08-27T14:25:15.397Z,4.35
2022-08-27T14:28:02.792Z,4.25
2022-08-27T14:30:53.602Z,4.72
2022-08-27T14:33:39.788Z,4.83
2022-08-27T14:36:30.221Z,4.65
2022-08-27T14:39:17.869Z,4.78
2022-08-27T14:42:07.209Z,4.45
2022-08-27T14:44:55.752Z,4.50
2022-08-27T14:47:44.281Z,5.12
2022-08-27T14:50:31.589Z,4.62
2022-08-27T14:53:19.764Z,4.80
2022-08-27T14:56:07.568Z,4.30
2022-08-27T14:58:54.898Z,5.00
2022-08-27T15:01:42.390Z,4.47
2022-08-27T15:04:32.116Z,4.42
2022-08-27T15:07:19.876Z,4.25
2022-08-27T15:10:09.399Z,4.30
2022-08-27T15:12:57.877Z,4.62
2022-08-27T15:15:45.678Z,4.28
2022-08-27T15:18:32.926Z,4.20
2022-08-27T15:21:20.279Z,4.47
2022-08-27T15:24:29.187Z,4.70
2022-08-27T15:27:16.734Z,4.25
2022-08-27T15:30:06.166Z,4.20
2022-08-27T15:32:53.698Z,4.08
2022-08-27T15:35:41.229Z,4.00
2022-08-27T15:38:28.817Z,4.05
2022-08-27T15:41:16.230Z,4.10
2022-08-27T15:44:04.171Z,4.28
2022-08-27T15:46:51.715Z,4.08
2022-08-27T15:49:40.868Z,4.00
2022-08-27T15:52:40.404Z,4.15
2022-08-27T15:55:23.582Z,4.25
2022-08-27T15:58:12.381Z,4.05
2022-08-27T16:01:11.789Z,4.22
2022-08-27T16:04:00.281Z,4.20
2022-08-27T16:06:49.037Z,3.55
2022-08-27T16:09:36.631Z,3.87
2022-08-27T16:12:26.931Z,3.90
2022-08-27T16:15:13.394Z,4.22
2022-08-27T16:18:03.415Z,4.28
2022-08-27T16:20:51.084Z,3.08
2022-08-27T16:23:38.495Z,3.60
2022-08-27T16:26:25.876Z,4.22
2022-08-27T16:29:13.205Z,4.05
2022-08-27T16:32:01.534Z,4.17
2022-08-27T16:34:55.448Z,4.05
2022-08-27T16:37:38.209Z,4.25
2022-08-27T16:40:26.660Z,3.50
2022-08-27T16:43:18.818Z,3.80
2022-08-27T16:46:06.603Z,3.50
2022-08-27T16:49:11.949Z,3.47
2022-08-27T16:52:00.084Z,3.80
2022-08-27T16:54:47.450Z,3.77
2022-08-27T16:57:35.254Z,3.40
2022-08-27T17:00:23.122Z,3.70
2022-08-27T17:03:10.715Z,3.35
2022-08-27T17:05:58.873Z,3.12
2022-08-27T17:08:48.065Z,3.08
2022-08-27T17:11:36.453Z,3.15
2022-08-27T17:14:24.087Z,2.85
2022-08-27T17:17:13.006Z,2.90
2022-08-27T17:20:01.035Z,2.50
2022-08-27T17:22:48.928Z,2.60
2022-08-27T17:25:36.512Z,2.83
2022-08-27T17:28:23.632Z,3.40
2022-08-27T17:31:13.631Z,3.22
2022-08-27T17:34:02.244Z,3.47
2022-08-27T17:36:50.295Z,3.08
2022-08-27T17:39:37.669Z,3.00
2022-08-27T17:42:26.144Z,2.90
2022-08-27T17:45:13.649Z,2.72
2022-08-27T17:48:01.202Z,3.12
2022-08-27T17:50:50.051Z,3.25
2022-08-27T17:53:43.083Z,3.37
2022-08-27T17:56:30.845Z,3.27
2022-08-27T17:59:19.062Z,3.40
2022-08-27T18:02:06.385Z,3.33
2022-08-27T18:04:53.991Z,3.15
2022-08-27T18:07:43.085Z,3.37
2022-08-27T18:10:30.868Z,3.72
2022-08-27T18:13:19.651Z,3.90
2022-08-27T18:16:07.465Z,3.35
2022-08-27T18:18:54.917Z,3.70
2022-08-27T18:21:46.471Z,3.58
2022-08-27T18:24:31.144Z,3.72
2022-08-27T18:27:26.862Z,3.87
2022-08-27T18:30:16.182Z,3.92
2022-08-27T18:33:03.678Z,3.90
2022-08-27T18:35:50.723Z,4.10
2022-08-27T18:38:39.224Z,3.72
2022-08-27T18:41:28.523Z,3.65
2022-08-27T18:44:17.757Z,3.60
2022-08-27T18:47:05.842Z,3.22
2022-08-27T18:49:53.288Z,3.50
2022-08-27T18:52:42.855Z,3.67
2022-08-27T18:55:30.539Z,3.27
2022-08-27T18:58:19.769Z,3.27
2022-08-27T19:01:15.951Z,3.42
2022-08-27T19:04:05.240Z,3.50
2022-08-27T19:06:54.059Z,3.42
2022-08-27T19:09:41.505Z,3.30
2022-08-27T19:12:28.943Z,3.30
2022-08-27T19:15:16.664Z,3.10
2022-08-27T19:18:04.240Z,3.70
2022-08-27T19:20:52.296Z,2.98
2022-08-27T19:23:40.576Z,3.12
2022-08-27T19:26:28.283Z,3.50
2022-08-27T19:29:19.772Z,2.92
2022-08-27T19:32:07.417Z,3.50
2022-08-27T19:34:54.524Z,3.20
2022-08-27T19:37:46.376Z,3.08
2022-08-27T19:40:37.481Z,2.92
2022-08-27T19:43:26.709Z,2.90
2022-08-27T19:46:16.143Z,3.30
2022-08-27T19:49:03.677Z,3.20
2022-08-27T19:51:50.984Z,3.30
2022-08-27T19:54:52.018Z,3.50
2022-08-27T19:57:27.702Z,3.25
2022-08-27T20:00:20.027Z,3.60
2022-08-27T20:03:07.420Z,3.45
2022-08-27T20:05:55.216Z,3.47
2022-08-27T20:08:43.056Z,3.42
2022-08-27T20:11:30.282Z,3.52
2022-08-27T20:14:18.788Z,3.15
2022-08-27T20:17:06.629Z,3.25
2022-08-27T20:19:54.847Z,3.65
2022-08-27T20:22:44.233Z,3.12
2022-08-27T20:25:31.681Z,3.20
2022-08-27T20:28:38.850Z,3.55
2022-08-27T20:31:09.019Z,3.30
2022-08-27T20:33:56.721Z,3.60
2022-08-27T20:36:44.230Z,3.50
2022-08-27T20:39:33.708Z,3.35
2022-08-27T20:42:21.478Z,3.60
2022-08-27T20:45:12.152Z,3.62
2022-08-27T20:47:59.122Z,3.62
2022-08-27T20:50:46.392Z,3.75
2022-08-27T20:53:34.023Z,3.70
2022-08-27T20:56:21.973Z,3.20
2022-08-27T20:59:27.129Z,3.67
2022-08-27T21:02:16.471Z,3.60
2022-08-27T21:05:10.088Z,3.95
2022-08-27T21:07:57.665Z,3.37
2022-08-27T21:10:48.182Z,3.52
2022-08-27T21:13:46.402Z,3.72
2022-08-27T21:16:26.311Z,3.52
2022-08-27T21:19:13.528Z,3.52
2022-08-27T21:22:06.049Z,3.47
2022-08-27T21:24:50.270Z,3.65
2022-08-27T21:27:38.384Z,3.58
2022-08-27T21:30:26.471Z,3.67
2022-08-27T21:33:14.289Z,3.60
2022-08-27T21:36:11.273Z,3.58
2022-08-27T21:38:55.433Z,3.55
2022-08-27T21:41:42.803Z,3.65
2022-08-27T21:44:31.277Z,3.85
2022-08-27T21:47:18.622Z,3.98
2022-08-27T21:50:07.394Z,3.65
2022-08-27T21:52:55.207Z,3.77
2022-08-27T21:55:42.676Z,3.70
2022-08-27T21:58:29.870Z,3.80
2022-08-27T22:01:17.526Z,4.30
2022-08-27T22:04:05.624Z,3.87
2022-08-27T22:06:54.797Z,3.67
2022-08-27T22:09:41.326Z,3.80
2022-08-27T22:12:28.545Z,4.15
2022-08-27T22:15:16.106Z,3.92
2022-08-27T22:18:04.028Z,3.87
2022-08-27T22:20:52.416Z,3.70
2022-08-27T22:23:39.743Z,4.12
2022-08-27T22:26:28.804Z,3.83
2022-08-27T22:29:16.475Z,3.60
2022-08-27T22:32:06.115Z,4.00
2022-08-27T22:34:53.493Z,4.08
2022-08-27T22:37:41.876Z,3.83
2022-08-27T22:40:31.040Z,4.08
2022-08-27T22:43:18.245Z,3.83
2022-08-27T22:46:05.778Z,4.10
2022-08-27T22:48:54.225Z,3.62
2022-08-27T22:51:41.897Z,4.12
2022-08-27T22:54:29.166Z,4.05
2022-08-27T22:57:16.361Z,4.33
2022-08-27T23:00:06.928Z,3.95
2022-08-27T23:02:54.800Z,3.80
2022-08-27T23:05:43.528Z,3.80
2022-08-27T23:08:31.771Z,3.77
2022-08-27T23:11:19.040Z,3.90
2022-08-27T23:14:06.399Z,3.92
2022-08-27T23:16:54.371Z,3.70
2022-08-27T23:19:41.934Z,3.85
2022-08-27T23:22:31.000Z,3.80
2022-08-27T23:25:37.265Z,3.50
2022-08-27T23:28:26.091Z,3.50
2022-08-27T23:31:14.318Z,3.90
2022-08-27T23:34:01.629Z,4.08
2022-08-27T23:36:49.145Z,3.87
2022-08-27T23:39:36.733Z,3.58
2022-08-27T23:42:24.503Z,3.83
2022-08-27T23:45:15.348Z,3.52
2022-08-27T23:48:02.632Z,3.40
2022-08-27T23:50:50.472Z,3.08
2022-08-27T23:53:39.145Z,3.42
2022-08-27T23:56:28.110Z,3.50
2022-08-27T23:59:15.249Z,3.35
